createdAt,value
2023-04-30T00:00:36.261Z,97101.00
2023-04-30T00:03:04.654Z,97101.09
2023-04-30T00:05:32.705Z,97098.63
2023-04-30T00:08:00.596Z,97093.50
2023-04-30T00:10:28.340Z,97098.50
2023-04-30T00:12:57.113Z,97100.88
2023-04-30T00:15:24.950Z,97098.16
2023-04-30T00:17:53.402Z,97099.72
2023-04-30T00:20:21.179Z,97099.03
2023-04-30T00:22:49.033Z,97093.75
2023-04-30T00:25:16.933Z,97090.84
2023-04-30T00:27:44.841Z,97095.59
2023-04-30T00:30:12.981Z,97098.16
2023-04-30T00:32:42.101Z,97099.88
2023-04-30T00:35:10.023Z,97100.41
2023-04-30T00:37:38.163Z,97107.25
2023-04-30T00:40:06.807Z,97111.41
2023-04-30T00:42:34.611Z,97104.41
2023-04-30T00:45:02.367Z,97104.56
2023-04-30T00:47:32.221Z,97107.53
2023-04-30T00:50:00.220Z,97111.63
2023-04-30T00:52:28.221Z,97103.59
2023-04-30T00:54:56.010Z,97100.16
2023-04-30T00:57:24.115Z,97100.06
2023-04-30T00:59:52.051Z,97100.28
2023-04-30T01:02:20.258Z,97103.84
2023-04-30T01:04:48.045Z,97101.34
2023-04-30T01:07:16.112Z,97103.28
2023-04-30T01:09:43.850Z,97101.50
2023-04-30T01:12:24.048Z,97096.47
2023-04-30T01:14:58.215Z,97101.66
2023-04-30T01:17:48.553Z,97098.03
2023-04-30T01:20:16.739Z,97095.91
2023-04-30T01:23:06.305Z,97090.25
2023-04-30T01:25:40.457Z,97094.38
2023-04-30T01:28:18.070Z,97094.59
2023-04-30T01:30:46.536Z,97101.84
2023-04-30T01:33:14.672Z,97093.19
2023-04-30T01:35:54.810Z,97097.47
2023-04-30T01:38:25.561Z,97093.34
2023-04-30T01:40:59.605Z,97099.50
2023-04-30T01:43:46.170Z,97102.78
2023-04-30T01:46:25.433Z,97098.97
2023-04-30T01:48:59.904Z,97105.53
2023-04-30T01:51:56.107Z,97099.69
2023-04-30T01:54:29.182Z,97098.44
2023-04-30T01:57:13.653Z,97103.91
2023-04-30T01:59:41.621Z,97091.34
2023-04-30T02:02:10.056Z,97092.84
2023-04-30T02:04:38.015Z,97093.16
2023-04-30T02:07:05.717Z,97093.28
2023-04-30T02:09:33.572Z,97088.19
2023-04-30T02:12:01.314Z,97087.44
2023-04-30T02:14:31.469Z,97093.56
2023-04-30T02:16:59.301Z,97093.44
2023-04-30T02:19:27.290Z,97093.91
2023-04-30T02:21:55.110Z,97092.66
2023-04-30T02:24:23.068Z,97089.63
2023-04-30T02:26:51.237Z,97084.78
2023-04-30T02:29:19.142Z,97091.13
2023-04-30T02:31:46.888Z,97092.59
2023-04-30T02:34:14.673Z,97101.25
2023-04-30T02:36:42.358Z,97090.91
2023-04-30T02:39:10.164Z,97088.41
2023-04-30T02:41:38.107Z,97095.91
2023-04-30T02:44:05.922Z,97091.13
2023-04-30T02:46:33.983Z,97098.59
2023-04-30T02:49:01.894Z,97100.47
2023-04-30T02:51:29.784Z,97107.84
2023-04-30T02:53:57.669Z,97097.00
2023-04-30T02:56:25.434Z,97108.34
2023-04-30T02:58:53.727Z,97106.38
2023-04-30T03:01:21.583Z,97111.94
2023-04-30T03:03:49.694Z,97109.97
2023-04-30T03:06:17.539Z,97108.97
2023-04-30T03:08:45.357Z,97111.00
2023-04-30T03:11:13.196Z,97116.56
2023-04-30T03:13:41.224Z,97119.50
2023-04-30T03:16:09.006Z,97116.91
2023-04-30T03:18:36.848Z,97123.06
2023-04-30T03:21:04.798Z,97120.41
2023-04-30T03:23:32.554Z,97130.28
2023-04-30T03:26:00.500Z,97122.66
2023-04-30T03:28:28.190Z,97120.69
2023-04-30T03:30:56.058Z,97122.97
2023-04-30T03:33:23.812Z,97119.72
2023-04-30T03:35:51.990Z,97125.97
2023-04-30T03:38:19.764Z,97128.50
2023-04-30T03:40:47.716Z,97140.88
2023-04-30T03:43:15.477Z,97134.75
2023-04-30T03:45:43.326Z,97139.94
2023-04-30T03:48:11.270Z,97145.88
2023-04-30T03:50:39.083Z,97139.25
2023-04-30T03:53:06.829Z,97142.22
2023-04-30T03:55:36.065Z,97149.91
2023-04-30T03:58:03.901Z,97155.59
2023-04-30T04:00:31.757Z,97158.19
2023-04-30T04:03:00.478Z,97148.34
2023-04-30T04:05:29.894Z,97156.09
2023-04-30T04:07:57.652Z,97150.72
2023-04-30T04:10:25.486Z,97157.69
2023-04-30T04:12:53.290Z,97154.59
2023-04-30T04:15:21.237Z,97152.66
2023-04-30T04:17:49.162Z,97133.09
2023-04-30T04:20:17.800Z,97146.97
2023-04-30T04:22:46.125Z,97147.81
2023-04-30T04:25:14.326Z,97153.81
2023-04-30T04:27:44.935Z,97153.00
2023-04-30T04:30:13.815Z,97160.06
2023-04-30T04:32:46.994Z,97154.50
2023-04-30T04:35:15.885Z,97150.81
2023-04-30T04:37:44.090Z,97160.25
2023-04-30T04:40:12.585Z,97154.09
2023-04-30T04:42:40.944Z,97154.50
2023-04-30T04:45:09.869Z,97153.50
2023-04-30T04:47:38.269Z,97148.16
2023-04-30T04:50:06.870Z,97159.88
2023-04-30T04:52:34.632Z,97152.00
2023-04-30T04:55:02.548Z,97149.72
2023-04-30T04:57:30.515Z,97161.16
2023-04-30T04:59:58.347Z,97148.84
2023-04-30T05:02:26.348Z,97161.75
2023-04-30T05:04:54.248Z,97155.06
2023-04-30T05:07:21.962Z,97151.91
2023-04-30T05:09:49.857Z,97157.28
2023-04-30T05:12:17.633Z,97158.06
2023-04-30T05:14:45.499Z,97162.94
2023-04-30T05:17:13.198Z,97166.38
2023-04-30T05:19:41.049Z,97153.53
2023-04-30T05:22:08.747Z,97162.91
2023-04-30T05:24:36.586Z,97151.00
2023-04-30T05:27:05.583Z,97162.03
2023-04-30T05:29:33.478Z,97165.19
2023-04-30T05:32:01.612Z,97158.91
2023-04-30T05:34:29.518Z,97155.00
2023-04-30T05:36:57.301Z,97145.88
2023-04-30T05:39:25.121Z,97156.28
2023-04-30T05:41:53.501Z,97150.97
2023-04-30T05:44:21.298Z,97155.59
2023-04-30T05:46:49.050Z,97154.97
2023-04-30T05:49:16.790Z,97147.56
2023-04-30T05:51:44.630Z,97156.34
2023-04-30T05:54:12.342Z,97144.13
2023-04-30T05:56:40.091Z,97155.59
2023-04-30T05:59:07.921Z,97162.09
2023-04-30T06:01:36.051Z,97151.34
2023-04-30T06:04:05.070Z,97158.88
2023-04-30T06:06:32.899Z,97152.59
2023-04-30T06:09:00.844Z,97154.00
2023-04-30T06:11:29.448Z,97152.25
2023-04-30T06:13:57.233Z,97158.78
2023-04-30T06:16:25.041Z,97162.09
2023-04-30T06:18:53.852Z,97163.91
2023-04-30T06:21:25.912Z,97155.81
2023-04-30T06:23:53.722Z,97164.56
2023-04-30T06:26:21.430Z,97162.44
2023-04-30T06:28:49.216Z,97153.53
2023-04-30T06:31:17.011Z,97164.50
2023-04-30T06:33:44.795Z,97163.84
2023-04-30T06:36:13.265Z,97160.88
2023-04-30T06:38:41.544Z,97157.44
2023-04-30T06:41:09.426Z,97154.41
2023-04-30T06:43:37.132Z,97152.84
2023-04-30T06:46:06.738Z,97150.28
2023-04-30T06:48:34.583Z,97152.94
2023-04-30T06:51:02.385Z,97160.34
2023-04-30T06:53:30.227Z,97151.03
2023-04-30T06:55:58.013Z,97160.13
2023-04-30T06:58:25.808Z,97165.03
2023-04-30T07:00:54.259Z,97168.59
2023-04-30T07:03:22.180Z,97160.16
2023-04-30T07:05:51.728Z,97167.38
2023-04-30T07:08:19.497Z,97172.69
2023-04-30T07:10:47.284Z,97175.81
2023-04-30T07:13:15.031Z,97175.84
2023-04-30T07:15:42.887Z,97172.69
2023-04-30T07:18:10.669Z,97180.31
2023-04-30T07:20:38.558Z,97168.59
2023-04-30T07:23:06.314Z,97164.19
2023-04-30T07:25:34.891Z,97167.09
2023-04-30T07:28:02.632Z,97160.91
2023-04-30T07:30:30.430Z,97171.16
2023-04-30T07:32:58.238Z,97169.38
2023-04-30T07:35:26.195Z,97174.22
2023-04-30T07:37:53.996Z,97164.84
2023-04-30T07:40:34.517Z,97172.69
2023-04-30T07:43:04.726Z,97180.47
2023-04-30T07:45:33.927Z,97162.25
2023-04-30T07:48:01.891Z,97163.16
2023-04-30T07:50:33.830Z,97164.66
2023-04-30T07:53:01.928Z,97158.56
2023-04-30T07:55:29.576Z,97159.34
2023-04-30T07:57:57.399Z,97155.16
2023-04-30T08:00:26.521Z,97154.06
2023-04-30T08:02:54.318Z,97145.53
2023-04-30T08:05:22.350Z,97158.03
2023-04-30T08:07:50.022Z,97150.19
2023-04-30T08:10:17.826Z,97150.22
2023-04-30T08:12:45.758Z,97149.19
2023-04-30T08:15:13.493Z,97147.38
2023-04-30T08:17:41.333Z,97142.09
2023-04-30T08:20:09.595Z,97139.19
2023-04-30T08:22:37.462Z,97138.31
2023-04-30T08:25:05.571Z,97140.69
2023-04-30T08:27:33.428Z,97128.59
2023-04-30T08:30:01.170Z,97138.09
2023-04-30T08:32:29.901Z,97134.09
2023-04-30T08:34:57.693Z,97119.38
2023-04-30T08:37:25.628Z,97125.13
2023-04-30T08:39:53.518Z,97125.13
2023-04-30T08:42:22.438Z,97118.16
2023-04-30T08:44:50.196Z,97126.56
2023-04-30T08:47:18.627Z,97119.16
2023-04-30T08:49:46.431Z,97118.97
2023-04-30T08:52:14.241Z,97127.19
2023-04-30T08:54:41.961Z,97129.56
2023-04-30T08:57:10.581Z,97116.91
2023-04-30T08:59:38.322Z,97121.84
2023-04-30T09:02:06.460Z,97120.41
2023-04-30T09:04:34.227Z,97105.53
2023-04-30T09:07:05.157Z,97110.22
2023-04-30T09:09:38.317Z,97107.22
2023-04-30T09:12:19.074Z,97102.75
2023-04-30T09:15:05.008Z,97108.38
2023-04-30T09:17:33.632Z,97099.25
2023-04-30T09:20:19.431Z,97102.28
2023-04-30T09:22:47.286Z,97100.44
2023-04-30T09:25:15.009Z,97088.41
2023-04-30T09:27:42.894Z,97095.63
2023-04-30T09:30:11.313Z,97094.03
2023-04-30T09:32:54.931Z,97093.34
2023-04-30T09:35:29.927Z,97090.75
2023-04-30T09:38:02.394Z,97094.84
2023-04-30T09:40:36.040Z,97100.00
2023-04-30T09:43:03.834Z,97088.81
2023-04-30T09:45:47.483Z,97079.03
2023-04-30T09:48:22.692Z,97081.91
2023-04-30T09:50:51.097Z,97076.19
2023-04-30T09:53:19.311Z,97075.88
2023-04-30T09:55:48.264Z,97075.22
2023-04-30T09:58:17.048Z,97085.16
2023-04-30T10:00:49.637Z,97073.25
2023-04-30T10:03:17.632Z,97071.28
2023-04-30T10:05:48.933Z,97064.59
2023-04-30T10:08:26.897Z,97066.97
2023-04-30T10:10:59.124Z,97076.28
2023-04-30T10:13:29.775Z,97081.72
2023-04-30T10:16:01.251Z,97078.38
2023-04-30T10:18:31.533Z,97078.19
2023-04-30T10:20:59.334Z,97071.31
2023-04-30T10:23:27.228Z,97075.56
2023-04-30T10:25:54.997Z,97074.31
2023-04-30T10:28:23.758Z,97066.63
2023-04-30T10:30:51.585Z,97067.03
2023-04-30T10:33:49.780Z,97069.63
2023-04-30T10:36:32.504Z,97061.47
2023-04-30T10:39:00.365Z,97063.94
2023-04-30T10:41:29.525Z,97056.56
2023-04-30T10:44:01.882Z,97057.81
2023-04-30T10:46:30.140Z,97063.88
2023-04-30T10:48:57.988Z,97065.66
2023-04-30T10:51:29.802Z,97058.00
2023-04-30T10:53:57.624Z,97067.22
2023-04-30T10:56:32.091Z,97067.59
2023-04-30T10:59:03.116Z,97072.56
2023-04-30T11:01:31.347Z,97056.03
2023-04-30T11:04:06.607Z,97051.59
2023-04-30T11:06:52.714Z,97059.16
2023-04-30T11:09:24.247Z,97057.44
2023-04-30T11:12:03.040Z,97049.38
2023-04-30T11:14:34.178Z,97059.34
2023-04-30T11:17:02.487Z,97064.00
2023-04-30T11:19:31.237Z,97064.88
2023-04-30T11:22:05.258Z,97040.59
2023-04-30T11:25:03.153Z,97043.56
2023-04-30T11:27:32.335Z,97036.78
2023-04-30T11:30:00.375Z,97044.53
2023-04-30T11:32:35.460Z,97052.63
2023-04-30T11:35:04.389Z,97053.38
2023-04-30T11:37:36.386Z,97052.91
2023-04-30T11:40:08.699Z,97051.88
2023-04-30T11:42:39.273Z,97042.59
2023-04-30T11:45:11.179Z,97058.53
2023-04-30T11:47:43.205Z,97052.28
2023-04-30T11:50:13.046Z,97057.91
2023-04-30T11:52:41.280Z,97073.91
2023-04-30T11:55:13.925Z,97075.91
2023-04-30T11:57:43.083Z,97087.69
2023-04-30T12:00:12.922Z,97074.00
2023-04-30T12:02:42.460Z,97085.19
2023-04-30T12:05:20.894Z,97076.44
2023-04-30T12:07:50.299Z,97065.41
2023-04-30T12:10:21.191Z,97060.16
2023-04-30T12:12:51.291Z,97053.81
2023-04-30T12:15:26.308Z,97050.81
2023-04-30T12:17:58.345Z,97052.25
2023-04-30T12:20:28.234Z,97060.03
2023-04-30T12:22:56.207Z,97064.09
2023-04-30T12:25:24.058Z,97055.03
2023-04-30T12:27:53.342Z,97051.88
2023-04-30T12:30:25.388Z,97047.78
2023-04-30T12:32:53.746Z,97049.13
2023-04-30T12:35:22.941Z,97049.97
2023-04-30T12:37:52.455Z,97048.00
2023-04-30T12:40:21.647Z,97055.69
2023-04-30T12:42:49.597Z,97049.84
2023-04-30T12:46:08.687Z,97043.88
2023-04-30T12:48:45.805Z,97045.38
2023-04-30T12:51:19.637Z,97034.13
2023-04-30T12:53:47.458Z,97031.72
2023-04-30T12:56:16.764Z,97034.97
2023-04-30T12:58:50.595Z,97037.00
2023-04-30T13:01:23.967Z,97033.25
2023-04-30T13:03:52.812Z,97031.66
2023-04-30T13:06:22.642Z,97026.66
2023-04-30T13:08:58.691Z,97027.28
2023-04-30T13:11:27.701Z,97025.13
2023-04-30T13:13:56.212Z,97018.81
2023-04-30T13:16:26.919Z,97031.22
2023-04-30T13:18:55.144Z,97032.41
2023-04-30T13:21:23.090Z,97034.34
2023-04-30T13:23:53.642Z,97040.88
2023-04-30T13:26:26.493Z,97047.94
2023-04-30T13:28:54.365Z,97044.84
2023-04-30T13:31:22.573Z,97048.19
2023-04-30T13:33:50.849Z,97041.69
2023-04-30T13:36:18.702Z,97038.59
2023-04-30T13:38:46.831Z,97027.81
2023-04-30T13:41:14.823Z,97029.09
2023-04-30T13:43:43.699Z,97024.53
2023-04-30T13:46:11.504Z,97031.59
2023-04-30T13:48:39.358Z,97032.09
2023-04-30T13:51:07.480Z,97029.94
2023-04-30T13:53:37.074Z,97026.00
2023-04-30T13:56:05.833Z,97024.47
2023-04-30T13:58:33.590Z,97023.69
2023-04-30T14:01:01.483Z,97025.00
2023-04-30T14:03:29.397Z,97013.38
2023-04-30T14:05:58.134Z,97018.88
2023-04-30T14:08:25.885Z,97010.91
2023-04-30T14:10:53.750Z,97004.88
2023-04-30T14:13:21.463Z,97000.44
2023-04-30T14:15:49.206Z,97008.75
2023-04-30T14:18:17.009Z,97013.03
2023-04-30T14:20:44.815Z,97018.38
2023-04-30T14:23:12.736Z,97014.84
2023-04-30T14:25:40.681Z,97011.66
2023-04-30T14:28:08.426Z,97008.31
2023-04-30T14:30:36.591Z,97012.94
2023-04-30T14:33:04.419Z,97008.00
2023-04-30T14:35:33.010Z,96999.88
2023-04-30T14:38:00.832Z,97005.91
2023-04-30T14:40:28.889Z,97004.06
2023-04-30T14:42:56.674Z,97007.59
2023-04-30T14:45:24.483Z,96999.31
2023-04-30T14:47:52.254Z,96997.78
2023-04-30T14:50:20.037Z,96999.59
2023-04-30T14:52:47.839Z,96993.09
2023-04-30T14:55:15.556Z,96986.88
2023-04-30T14:57:43.367Z,96983.91
2023-04-30T15:00:12.271Z,96990.38
2023-04-30T15:02:40.208Z,96997.13
2023-04-30T15:05:08.707Z,96995.94
2023-04-30T15:07:36.918Z,96987.75
2023-04-30T15:10:06.627Z,96992.09
2023-04-30T15:12:35.731Z,96998.13
2023-04-30T15:15:04.718Z,97001.78
2023-04-30T15:17:36.699Z,97004.44
2023-04-30T15:20:05.383Z,97007.88
2023-04-30T15:22:33.506Z,97010.75
2023-04-30T15:25:01.274Z,97003.47
2023-04-30T15:27:29.424Z,97009.78
2023-04-30T15:29:58.568Z,97008.97
2023-04-30T15:32:26.452Z,97008.09
2023-04-30T15:34:55.217Z,97020.78
2023-04-30T15:37:22.986Z,97013.91
2023-04-30T15:39:50.916Z,97010.44
2023-04-30T15:42:18.808Z,97016.66
2023-04-30T15:44:46.509Z,97023.53
2023-04-30T15:47:14.277Z,97014.00
2023-04-30T15:49:42.382Z,97011.97
2023-04-30T15:52:10.527Z,97016.25
2023-04-30T15:54:38.349Z,97010.31
2023-04-30T15:57:06.129Z,97009.66
2023-04-30T15:59:33.898Z,97011.16
2023-04-30T16:02:02.597Z,97008.03
2023-04-30T16:04:30.585Z,97016.25
2023-04-30T16:06:58.345Z,97018.44
2023-04-30T16:09:27.027Z,97022.53
2023-04-30T16:11:55.871Z,97019.69
2023-04-30T16:14:23.616Z,97013.34
2023-04-30T16:16:51.404Z,97021.72
2023-04-30T16:19:19.492Z,97015.78
2023-04-30T16:21:47.350Z,97003.47
2023-04-30T16:24:16.365Z,97018.44
2023-04-30T16:26:44.224Z,97013.81
2023-04-30T16:29:12.049Z,97031.19
2023-04-30T16:31:39.923Z,97030.19
2023-04-30T16:34:11.992Z,97034.34
2023-04-30T16:36:40.376Z,97029.69
2023-04-30T16:39:08.073Z,97026.53
2023-04-30T16:41:35.854Z,97024.22
2023-04-30T16:44:03.604Z,97035.41
2023-04-30T16:46:31.796Z,97034.88
2023-04-30T16:49:00.011Z,97040.50
2023-04-30T16:51:27.966Z,97042.66
2023-04-30T16:53:55.779Z,97049.94
2023-04-30T16:56:23.560Z,97039.84
2023-04-30T16:58:51.445Z,97047.38
2023-04-30T17:01:19.336Z,97046.38
2023-04-30T17:03:47.453Z,97049.47
2023-04-30T17:06:15.386Z,97053.59
2023-04-30T17:08:43.158Z,97054.13
2023-04-30T17:11:10.934Z,97064.53
2023-04-30T17:13:38.730Z,97076.66
2023-04-30T17:16:06.786Z,97063.44
2023-04-30T17:18:34.600Z,97064.38
2023-04-30T17:21:02.400Z,97072.00
2023-04-30T17:23:30.377Z,97073.91
2023-04-30T17:25:58.227Z,97072.63
2023-04-30T17:28:26.095Z,97077.66
2023-04-30T17:30:53.890Z,97088.09
2023-04-30T17:33:21.732Z,97084.31
2023-04-30T17:35:50.509Z,97088.84
2023-04-30T17:38:18.336Z,97087.72
2023-04-30T17:40:46.129Z,97100.09
2023-04-30T17:43:14.029Z,97098.41
2023-04-30T17:45:43.157Z,97098.84
2023-04-30T17:48:11.187Z,97098.84
2023-04-30T17:50:38.948Z,97097.00
2023-04-30T17:53:06.771Z,97102.31
2023-04-30T17:55:34.562Z,97106.66
2023-04-30T17:58:03.982Z,97109.72
2023-04-30T18:00:31.765Z,97114.66
2023-04-30T18:02:59.765Z,97110.66
2023-04-30T18:05:27.506Z,97119.22
2023-04-30T18:07:55.293Z,97124.63
2023-04-30T18:10:23.038Z,97125.72
2023-04-30T18:12:50.917Z,97132.13
2023-04-30T18:15:18.943Z,97133.13
2023-04-30T18:17:46.759Z,97136.66
2023-04-30T18:20:14.635Z,97143.16
2023-04-30T18:22:43.652Z,97137.44
2023-04-30T18:25:13.146Z,97150.19
2023-04-30T18:27:41.120Z,97144.84
2023-04-30T18:30:09.329Z,97163.66
2023-04-30T18:32:37.402Z,97160.94
2023-04-30T18:35:05.648Z,97162.03
2023-04-30T18:37:33.890Z,97155.91
2023-04-30T18:40:01.625Z,97157.53
2023-04-30T18:42:30.197Z,97155.25
2023-04-30T18:44:58.094Z,97157.25
2023-04-30T18:47:25.990Z,97158.81
2023-04-30T18:49:54.059Z,97162.19
2023-04-30T18:52:22.896Z,97172.38
2023-04-30T18:54:51.167Z,97175.13
2023-04-30T18:57:19.527Z,97186.00
2023-04-30T18:59:48.195Z,97183.25
2023-04-30T19:02:16.566Z,97186.44
2023-04-30T19:04:44.370Z,97192.25
2023-04-30T19:07:12.471Z,97198.91
2023-04-30T19:09:40.308Z,97188.53
2023-04-30T19:12:08.519Z,97191.78
2023-04-30T19:14:37.424Z,97191.19
2023-04-30T19:17:05.497Z,97195.78
2023-04-30T19:19:33.405Z,97199.47
2023-04-30T19:22:01.347Z,97202.28
2023-04-30T19:24:29.235Z,97203.44
2023-04-30T19:26:57.720Z,97207.53
2023-04-30T19:29:26.339Z,97207.00
2023-04-30T19:31:55.237Z,97201.16
2023-04-30T19:34:23.876Z,97202.13
2023-04-30T19:36:51.652Z,97208.34
2023-04-30T19:39:20.376Z,97209.66
2023-04-30T19:41:51.028Z,97209.91
2023-04-30T19:44:20.018Z,97213.03
2023-04-30T19:49:15.975Z,97223.69
2023-04-30T19:51:43.740Z,97282.75
2023-04-30T19:54:14.297Z,97268.56
2023-04-30T19:56:42.237Z,97281.91
2023-04-30T19:59:10.056Z,97278.16
2023-04-30T20:01:38.572Z,97277.34
2023-04-30T20:04:06.982Z,97299.56
2023-04-30T20:06:34.905Z,97317.09
2023-04-30T20:09:02.856Z,97326.34
2023-04-30T20:11:30.661Z,97334.59
2023-04-30T20:13:58.486Z,97350.13
2023-04-30T20:16:26.414Z,97328.94
2023-04-30T20:18:54.194Z,97327.28
2023-04-30T20:21:24.416Z,97299.91
2023-04-30T20:23:52.319Z,97293.56
2023-04-30T20:26:21.511Z,97303.53
2023-04-30T20:28:49.307Z,97310.88
2023-04-30T20:31:17.149Z,97309.72
2023-04-30T20:33:46.011Z,97302.81
2023-04-30T20:36:13.732Z,97293.13
2023-04-30T20:38:41.706Z,97291.97
2023-04-30T20:41:10.070Z,97295.31
2023-04-30T20:43:38.114Z,97294.09
2023-04-30T20:46:05.940Z,97301.16
2023-04-30T20:48:33.715Z,97315.25
2023-04-30T20:51:01.451Z,97324.41
2023-04-30T20:53:29.458Z,97336.38
2023-04-30T20:56:00.197Z,97329.47
2023-04-30T20:58:28.300Z,97336.09
2023-04-30T21:00:56.671Z,97329.94
2023-04-30T21:03:24.985Z,97329.25
2023-04-30T21:05:52.796Z,97336.94
2023-04-30T21:08:20.633Z,97333.06
2023-04-30T21:10:48.810Z,97331.94
2023-04-30T21:13:17.167Z,97336.66
2023-04-30T21:15:45.546Z,97337.84
2023-04-30T21:18:13.431Z,97337.09
2023-04-30T21:20:41.251Z,97337.63
2023-04-30T21:23:09.113Z,97330.56
2023-04-30T21:25:38.103Z,97323.59
2023-04-30T21:28:06.473Z,97320.06
2023-04-30T21:30:35.534Z,97317.97
2023-04-30T21:33:04.018Z,97324.63
2023-04-30T21:35:33.136Z,97325.63
2023-04-30T21:38:01.143Z,97328.69
2023-04-30T21:40:32.226Z,97318.66
2023-04-30T21:43:01.367Z,97316.84
2023-04-30T21:45:29.534Z,97322.09
2023-04-30T21:47:57.488Z,97314.56
2023-04-30T21:50:25.259Z,97319.75
2023-04-30T21:52:53.348Z,97331.97
2023-04-30T21:55:21.192Z,97334.56
2023-04-30T21:57:50.925Z,97345.34
2023-04-30T22:00:18.886Z,97344.22
2023-04-30T22:02:50.725Z,97346.41
2023-04-30T22:05:19.655Z,97340.72
2023-04-30T22:07:47.686Z,97352.78
2023-04-30T22:10:15.635Z,97348.16
2023-04-30T22:12:47.104Z,97336.06
2023-04-30T22:15:15.648Z,97348.88
2023-04-30T22:17:43.477Z,97345.94
2023-04-30T22:20:11.607Z,97334.25
2023-04-30T22:22:39.550Z,97339.84
2023-04-30T22:25:08.904Z,97339.34
2023-04-30T22:27:36.770Z,97338.72
2023-04-30T22:30:06.151Z,97347.13
2023-04-30T22:32:34.456Z,97337.38
2023-04-30T22:35:03.365Z,97343.00
2023-04-30T22:37:31.445Z,97349.88
2023-04-30T22:39:59.294Z,97345.84
2023-04-30T22:42:27.193Z,97349.72
2023-04-30T22:44:54.926Z,97341.50
2023-04-30T22:47:22.835Z,97344.16
2023-04-30T22:49:50.581Z,97346.25
2023-04-30T22:52:18.317Z,97342.88
2023-04-30T22:54:47.319Z,97342.31
2023-04-30T22:57:15.051Z,97337.16
2023-04-30T22:59:42.895Z,97332.38
2023-04-30T23:02:10.651Z,97335.84
2023-04-30T23:04:38.537Z,97339.31
2023-04-30T23:07:06.604Z,97340.41
2023-04-30T23:09:34.368Z,97330.97
2023-04-30T23:12:02.439Z,97346.41
2023-04-30T23:14:30.207Z,97343.88
2023-04-30T23:16:58.079Z,97341.72
2023-04-30T23:19:25.996Z,97344.03
2023-04-30T23:21:53.990Z,97341.72
2023-04-30T23:24:21.760Z,97336.09
2023-04-30T23:26:49.428Z,97349.16
2023-04-30T23:29:17.429Z,97334.75
2023-04-30T23:31:45.350Z,97344.03
2023-04-30T23:34:13.254Z,97341.50
2023-04-30T23:36:41.055Z,97341.81
2023-04-30T23:39:09.793Z,97337.91
2023-04-30T23:41:37.488Z,97349.84
2023-04-30T23:44:05.410Z,97350.88
2023-04-30T23:46:33.195Z,97349.84
2023-04-30T23:49:01.100Z,97349.97
2023-04-30T23:51:28.847Z,97351.00
2023-04-30T23:53:56.650Z,97359.97
2023-04-30T23:56:24.418Z,97358.19
2023-04-30T23:58:52.266Z,97359.97
